sensor_id;sensor_type;location;lat;lon;timestamp;P1;durP1;ratioP1;P2;durP2;ratioP2
4636;SDS011;2331;48.806;9.140;2022-08-05T00:01:10;3.90;;;2.70;;
4636;SDS011;2331;48.806;9.140;2022-08-05T00:03:38;3.97;;;2.70;;
4636;SDS011;2331;48.806;9.140;2022-08-05T00:06:05;6.40;;;3.10;;
4636;SDS011;2331;48.806;9.140;2022-08-05T00:08:32;5.00;;;3.07;;
4636;SDS011;2331;48.806;9.140;2022-08-05T00:10:59;3.70;;;2.33;;
4636;SDS011;2331;48.806;9.140;2022-08-05T00:13:29;10.83;;;2.97;;
4636;SDS011;2331;48.806;9.140;2022-08-05T00:15:57;6.13;;;2.70;;
4636;SDS011;2331;48.806;9.140;2022-08-05T00:18:23;3.37;;;2.20;;
4636;SDS011;2331;48.806;9.140;2022-08-05T00:20:50;14.97;;;3.00;;
4636;SDS011;2331;48.806;9.140;2022-08-05T00:23:17;4.60;;;2.60;;
4636;SDS011;2331;48.806;9.140;2022-08-05T00:25:44;3.70;;;2.70;;
4636;SDS011;2331;48.806;9.140;2022-08-05T00:28:11;3.10;;;2.30;;
4636;SDS011;2331;48.806;9.140;2022-08-05T00:30:39;3.77;;;2.73;;
4636;SDS011;2331;48.806;9.140;2022-08-05T00:33:06;8.03;;;2.97;;
4636;SDS011;2331;48.806;9.140;2022-08-05T00:35:32;3.70;;;2.60;;
4636;SDS011;2331;48.806;9.140;2022-08-05T00:37:59;5.13;;;2.67;;
4636;SDS011;2331;48.806;9.140;2022-08-05T00:40:26;6.07;;;2.87;;
4636;SDS011;2331;48.806;9.140;2022-08-05T00:42:53;4.13;;;2.97;;
4636;SDS011;2331;48.806;9.140;2022-08-05T00:45:20;3.60;;;2.53;;
4636;SDS011;2331;48.806;9.140;2022-08-05T00:47:48;4.40;;;2.50;;
4636;SDS011;2331;48.806;9.140;2022-08-05T00:50:15;5.50;;;2.70;;
4636;SDS011;2331;48.806;9.140;2022-08-05T00:52:42;6.50;;;3.20;;
4636;SDS011;2331;48.806;9.140;2022-08-05T00:55:09;4.60;;;3.03;;
4636;SDS011;2331;48.806;9.140;2022-08-05T00:57:36;5.37;;;3.03;;
4636;SDS011;2331;48.806;9.140;2022-08-05T01:00:03;5.10;;;3.20;;
4636;SDS011;2331;48.806;9.140;2022-08-05T01:02:30;5.33;;;3.10;;
4636;SDS011;2331;48.806;9.140;2022-08-05T01:04:58;5.97;;;2.83;;
4636;SDS011;2331;48.806;9.140;2022-08-05T01:07:25;5.80;;;3.10;;
4636;SDS011;2331;48.806;9.140;2022-08-05T01:09:52;6.20;;;2.60;;
4636;SDS011;2331;48.806;9.140;2022-08-05T01:12:19;4.80;;;2.37;;
4636;SDS011;2331;48.806;9.140;2022-08-05T01:14:47;4.50;;;2.80;;
4636;SDS011;2331;48.806;9.140;2022-08-05T01:17:23;5.20;;;2.60;;
4636;SDS011;2331;48.806;9.140;2022-08-05T01:19:58;3.90;;;2.83;;
4636;SDS011;2331;48.806;9.140;2022-08-05T01:22:43;6.33;;;2.80;;
4636;SDS011;2331;48.806;9.140;2022-08-05T01:25:34;9.33;;;3.00;;
4636;SDS011;2331;48.806;9.140;2022-08-05T01:28:19;10.50;;;3.17;;
4636;SDS011;2331;48.806;9.140;2022-08-05T01:30:53;7.53;;;2.77;;
4636;SDS011;2331;48.806;9.140;2022-08-05T01:33:25;8.40;;;2.90;;
4636;SDS011;2331;48.806;9.140;2022-08-05T01:35:59;6.83;;;3.03;;
4636;SDS011;2331;48.806;9.140;2022-08-05T01:38:28;9.10;;;3.40;;
4636;SDS011;2331;48.806;9.140;2022-08-05T01:40:57;9.37;;;2.73;;
4636;SDS011;2331;48.806;9.140;2022-08-05T01:43:25;7.17;;;2.60;;
4636;SDS011;2331;48.806;9.140;2022-08-05T01:45:53;7.07;;;2.97;;
4636;SDS011;2331;48.806;9.140;2022-08-05T01:48:21;8.83;;;3.03;;
4636;SDS011;2331;48.806;9.140;2022-08-05T01:50:48;14.93;;;3.50;;
4636;SDS011;2331;48.806;9.140;2022-08-05T01:53:16;6.90;;;2.60;;
4636;SDS011;2331;48.806;9.140;2022-08-05T01:55:46;10.30;;;3.53;;
4636;SDS011;2331;48.806;9.140;2022-08-05T01:58:16;7.20;;;3.00;;
4636;SDS011;2331;48.806;9.140;2022-08-05T02:00:47;6.33;;;2.67;;
4636;SDS011;2331;48.806;9.140;2022-08-05T02:03:16;5.40;;;2.80;;
4636;SDS011;2331;48.806;9.140;2022-08-05T02:05:46;6.73;;;2.83;;
4636;SDS011;2331;48.806;9.140;2022-08-05T02:08:15;15.50;;;3.47;;
4636;SDS011;2331;48.806;9.140;2022-08-05T02:10:43;7.47;;;2.90;;
4636;SDS011;2331;48.806;9.140;2022-08-05T02:13:14;5.20;;;2.50;;
4636;SDS011;2331;48.806;9.140;2022-08-05T02:15:43;7.50;;;2.83;;
4636;SDS011;2331;48.806;9.140;2022-08-05T02:18:17;9.10;;;2.67;;
4636;SDS011;2331;48.806;9.140;2022-08-05T02:20:48;7.20;;;3.23;;
4636;SDS011;2331;48.806;9.140;2022-08-05T02:23:21;11.20;;;2.77;;
4636;SDS011;2331;48.806;9.140;2022-08-05T02:25:50;7.60;;;2.93;;
4636;SDS011;2331;48.806;9.140;2022-08-05T02:28:19;5.90;;;2.67;;
4636;SDS011;2331;48.806;9.140;2022-08-05T02:30:51;6.03;;;2.50;;
4636;SDS011;2331;48.806;9.140;2022-08-05T02:33:21;6.90;;;2.70;;
4636;SDS011;2331;48.806;9.140;2022-08-05T02:35:50;5.50;;;2.50;;
4636;SDS011;2331;48.806;9.140;2022-08-05T02:38:19;5.80;;;3.07;;
4636;SDS011;2331;48.806;9.140;2022-08-05T02:40:47;11.60;;;3.23;;
4636;SDS011;2331;48.806;9.140;2022-08-05T02:43:14;5.67;;;2.80;;
4636;SDS011;2331;48.806;9.140;2022-08-05T02:45:43;6.40;;;2.90;;
4636;SDS011;2331;48.806;9.140;2022-08-05T02:48:12;9.33;;;3.23;;
4636;SDS011;2331;48.806;9.140;2022-08-05T02:50:41;5.20;;;3.07;;
4636;SDS011;2331;48.806;9.140;2022-08-05T02:53:11;8.37;;;3.00;;
4636;SDS011;2331;48.806;9.140;2022-08-05T02:55:39;6.50;;;2.90;;
4636;SDS011;2331;48.806;9.140;2022-08-05T02:58:06;7.13;;;3.03;;
4636;SDS011;2331;48.806;9.140;2022-08-05T03:00:33;4.70;;;2.50;;
4636;SDS011;2331;48.806;9.140;2022-08-05T03:03:01;4.53;;;2.70;;
4636;SDS011;2331;48.806;9.140;2022-08-05T03:05:31;10.73;;;2.50;;
4636;SDS011;2331;48.806;9.140;2022-08-05T03:07:58;7.07;;;2.97;;
4636;SDS011;2331;48.806;9.140;2022-08-05T03:10:25;13.53;;;3.80;;
4636;SDS011;2331;48.806;9.140;2022-08-05T03:12:52;5.80;;;2.67;;
4636;SDS011;2331;48.806;9.140;2022-08-05T03:15:18;7.80;;;3.20;;
4636;SDS011;2331;48.806;9.140;2022-08-05T03:17:45;6.53;;;2.80;;
4636;SDS011;2331;48.806;9.140;2022-08-05T03:20:12;9.47;;;2.80;;
4636;SDS011;2331;48.806;9.140;2022-08-05T03:22:40;4.43;;;2.70;;
4636;SDS011;2331;48.806;9.140;2022-08-05T03:25:07;5.77;;;3.00;;
4636;SDS011;2331;48.806;9.140;2022-08-05T03:27:34;5.73;;;3.00;;
4636;SDS011;2331;48.806;9.140;2022-08-05T03:30:01;7.63;;;2.43;;
4636;SDS011;2331;48.806;9.140;2022-08-05T03:32:28;11.70;;;2.90;;
4636;SDS011;2331;48.806;9.140;2022-08-05T03:34:55;5.87;;;3.13;;
4636;SDS011;2331;48.806;9.140;2022-08-05T03:37:22;4.97;;;2.80;;
4636;SDS011;2331;48.806;9.140;2022-08-05T03:39:57;10.80;;;3.90;;
4636;SDS011;2331;48.806;9.140;2022-08-05T03:42:26;12.73;;;3.60;;
4636;SDS011;2331;48.806;9.140;2022-08-05T03:44:53;6.47;;;3.30;;
4636;SDS011;2331;48.806;9.140;2022-08-05T03:47:20;6.07;;;3.10;;
4636;SDS011;2331;48.806;9.140;2022-08-05T03:49:46;5.30;;;2.63;;
4636;SDS011;2331;48.806;9.140;2022-08-05T03:52:16;7.50;;;3.03;;
4636;SDS011;2331;48.806;9.140;2022-08-05T03:54:48;9.07;;;3.60;;
4636;SDS011;2331;48.806;9.140;2022-08-05T03:57:21;8.40;;;3.27;;
4636;SDS011;2331;48.806;9.140;2022-08-05T03:59:50;7.73;;;3.27;;
4636;SDS011;2331;48.806;9.140;2022-08-05T04:02:20;5.03;;;2.90;;
4636;SDS011;2331;48.806;9.140;2022-08-05T04:04:50;7.93;;;3.10;;
4636;SDS011;2331;48.806;9.140;2022-08-05T04:07:17;5.30;;;2.87;;
4636;SDS011;2331;48.806;9.140;2022-08-05T04:09:44;5.93;;;2.97;;
4636;SDS011;2331;48.806;9.140;2022-08-05T04:12:11;5.50;;;2.83;;
4636;SDS011;2331;48.806;9.140;2022-08-05T04:14:39;6.67;;;3.23;;
4636;SDS011;2331;48.806;9.140;2022-08-05T04:17:07;5.30;;;3.03;;
4636;SDS011;2331;48.806;9.140;2022-08-05T04:19:40;5.53;;;2.73;;
4636;SDS011;2331;48.806;9.140;2022-08-05T04:22:08;4.33;;;2.67;;
4636;SDS011;2331;48.806;9.140;2022-08-05T04:24:34;5.80;;;3.67;;
4636;SDS011;2331;48.806;9.140;2022-08-05T04:27:01;9.63;;;3.27;;
4636;SDS011;2331;48.806;9.140;2022-08-05T04:29:28;8.60;;;3.00;;
4636;SDS011;2331;48.806;9.140;2022-08-05T04:31:56;6.20;;;3.30;;
4636;SDS011;2331;48.806;9.140;2022-08-05T04:34:23;6.13;;;3.07;;
4636;SDS011;2331;48.806;9.140;2022-08-05T04:36:50;9.30;;;3.10;;
4636;SDS011;2331;48.806;9.140;2022-08-05T04:39:17;6.57;;;2.97;;
4636;SDS011;2331;48.806;9.140;2022-08-05T04:41:43;8.00;;;2.57;;
4636;SDS011;2331;48.806;9.140;2022-08-05T04:44:10;6.10;;;3.17;;
4636;SDS011;2331;48.806;9.140;2022-08-05T04:46:37;9.07;;;3.50;;
4636;SDS011;2331;48.806;9.140;2022-08-05T04:49:05;10.60;;;3.10;;
4636;SDS011;2331;48.806;9.140;2022-08-05T04:51:32;9.60;;;3.40;;
4636;SDS011;2331;48.806;9.140;2022-08-05T04:53:59;8.83;;;3.03;;
4636;SDS011;2331;48.806;9.140;2022-08-05T04:56:26;9.23;;;3.37;;
4636;SDS011;2331;48.806;9.140;2022-08-05T04:58:53;7.33;;;3.53;;
4636;SDS011;2331;48.806;9.140;2022-08-05T05:01:20;5.40;;;3.13;;
4636;SDS011;2331;48.806;9.140;2022-08-05T05:03:46;15.83;;;4.27;;
4636;SDS011;2331;48.806;9.140;2022-08-05T05:06:14;6.83;;;3.27;;
4636;SDS011;2331;48.806;9.140;2022-08-05T05:08:43;5.60;;;3.40;;
4636;SDS011;2331;48.806;9.140;2022-08-05T05:11:10;7.40;;;3.83;;
4636;SDS011;2331;48.806;9.140;2022-08-05T05:13:37;8.53;;;4.13;;
4636;SDS011;2331;48.806;9.140;2022-08-05T05:16:04;9.23;;;3.77;;
4636;SDS011;2331;48.806;9.140;2022-08-05T05:18:36;8.17;;;4.37;;
4636;SDS011;2331;48.806;9.140;2022-08-05T05:21:07;12.90;;;3.83;;
4636;SDS011;2331;48.806;9.140;2022-08-05T05:23:35;9.50;;;4.10;;
4636;SDS011;2331;48.806;9.140;2022-08-05T05:26:03;8.87;;;3.63;;
4636;SDS011;2331;48.806;9.140;2022-08-05T05:28:30;6.77;;;3.53;;
4636;SDS011;2331;48.806;9.140;2022-08-05T05:30:56;5.47;;;3.70;;
4636;SDS011;2331;48.806;9.140;2022-08-05T05:33:23;8.33;;;4.00;;
4636;SDS011;2331;48.806;9.140;2022-08-05T05:35:50;9.63;;;3.73;;
4636;SDS011;2331;48.806;9.140;2022-08-05T05:38:17;7.47;;;3.60;;
4636;SDS011;2331;48.806;9.140;2022-08-05T05:40:45;11.20;;;4.73;;
4636;SDS011;2331;48.806;9.140;2022-08-05T05:43:11;8.10;;;4.30;;
4636;SDS011;2331;48.806;9.140;2022-08-05T05:45:38;8.73;;;4.20;;
4636;SDS011;2331;48.806;9.140;2022-08-05T05:48:05;8.43;;;4.60;;
4636;SDS011;2331;48.806;9.140;2022-08-05T05:50:32;11.30;;;4.47;;
4636;SDS011;2331;48.806;9.140;2022-08-05T05:52:59;9.50;;;4.43;;
4636;SDS011;2331;48.806;9.140;2022-08-05T05:55:26;11.67;;;4.43;;
4636;SDS011;2331;48.806;9.140;2022-08-05T05:57:54;9.37;;;4.90;;
4636;SDS011;2331;48.806;9.140;2022-08-05T06:00:21;7.93;;;3.80;;
4636;SDS011;2331;48.806;9.140;2022-08-05T06:02:48;8.47;;;4.17;;
4636;SDS011;2331;48.806;9.140;2022-08-05T06:05:15;10.33;;;5.10;;
4636;SDS011;2331;48.806;9.140;2022-08-05T06:07:42;9.13;;;4.20;;
4636;SDS011;2331;48.806;9.140;2022-08-05T06:10:10;6.30;;;3.93;;
4636;SDS011;2331;48.806;9.140;2022-08-05T06:12:37;7.90;;;3.90;;
4636;SDS011;2331;48.806;9.140;2022-08-05T06:15:07;9.70;;;3.80;;
4636;SDS011;2331;48.806;9.140;2022-08-05T06:17:34;6.23;;;3.97;;
4636;SDS011;2331;48.806;9.140;2022-08-05T06:20:01;8.17;;;3.73;;
4636;SDS011;2331;48.806;9.140;2022-08-05T06:22:29;6.83;;;3.83;;
4636;SDS011;2331;48.806;9.140;2022-08-05T06:24:58;10.70;;;3.80;;
4636;SDS011;2331;48.806;9.140;2022-08-05T06:27:25;4.87;;;3.53;;
4636;SDS011;2331;48.806;9.140;2022-08-05T06:29:52;7.33;;;3.60;;
4636;SDS011;2331;48.806;9.140;2022-08-05T06:32:20;6.60;;;3.90;;
4636;SDS011;2331;48.806;9.140;2022-08-05T06:34:47;8.43;;;4.13;;
4636;SDS011;2331;48.806;9.140;2022-08-05T06:37:13;7.10;;;3.73;;
4636;SDS011;2331;48.806;9.140;2022-08-05T06:39:40;10.00;;;4.20;;
4636;SDS011;2331;48.806;9.140;2022-08-05T06:42:07;5.57;;;3.90;;
4636;SDS011;2331;48.806;9.140;2022-08-05T06:44:34;5.90;;;3.40;;
4636;SDS011;2331;48.806;9.140;2022-08-05T06:47:01;8.43;;;4.00;;
4636;SDS011;2331;48.806;9.140;2022-08-05T06:49:29;12.13;;;3.93;;
4636;SDS011;2331;48.806;9.140;2022-08-05T06:51:55;5.87;;;3.53;;
4636;SDS011;2331;48.806;9.140;2022-08-05T06:54:23;6.90;;;3.30;;
4636;SDS011;2331;48.806;9.140;2022-08-05T06:56:49;5.87;;;3.70;;
4636;SDS011;2331;48.806;9.140;2022-08-05T06:59:16;6.50;;;3.20;;
4636;SDS011;2331;48.806;9.140;2022-08-05T07:01:43;5.60;;;3.50;;
4636;SDS011;2331;48.806;9.140;2022-08-05T07:04:10;9.43;;;3.10;;
4636;SDS011;2331;48.806;9.140;2022-08-05T07:06:38;6.57;;;3.40;;
4636;SDS011;2331;48.806;9.140;2022-08-05T07:09:05;6.83;;;3.60;;
4636;SDS011;2331;48.806;9.140;2022-08-05T07:11:32;12.60;;;4.10;;
4636;SDS011;2331;48.806;9.140;2022-08-05T07:13:59;5.53;;;3.40;;
4636;SDS011;2331;48.806;9.140;2022-08-05T07:16:43;9.83;;;3.70;;
4636;SDS011;2331;48.806;9.140;2022-08-05T07:19:17;9.93;;;3.47;;
4636;SDS011;2331;48.806;9.140;2022-08-05T07:21:48;5.73;;;3.40;;
4636;SDS011;2331;48.806;9.140;2022-08-05T07:24:15;9.13;;;3.60;;
4636;SDS011;2331;48.806;9.140;2022-08-05T07:26:43;16.03;;;4.93;;
4636;SDS011;2331;48.806;9.140;2022-08-05T07:29:10;10.70;;;4.90;;
4636;SDS011;2331;48.806;9.140;2022-08-05T07:31:37;9.83;;;5.47;;
4636;SDS011;2331;48.806;9.140;2022-08-05T07:34:04;12.33;;;7.30;;
4636;SDS011;2331;48.806;9.140;2022-08-05T07:36:31;13.43;;;5.33;;
4636;SDS011;2331;48.806;9.140;2022-08-05T07:38:59;6.37;;;3.43;;
4636;SDS011;2331;48.806;9.140;2022-08-05T07:41:27;8.23;;;4.80;;
4636;SDS011;2331;48.806;9.140;2022-08-05T07:43:55;6.77;;;4.10;;
4636;SDS011;2331;48.806;9.140;2022-08-05T07:46:23;12.93;;;7.43;;
4636;SDS011;2331;48.806;9.140;2022-08-05T07:48:50;9.40;;;5.53;;
4636;SDS011;2331;48.806;9.140;2022-08-05T07:51:17;9.10;;;5.23;;
4636;SDS011;2331;48.806;9.140;2022-08-05T07:53:44;6.67;;;4.23;;
4636;SDS011;2331;48.806;9.140;2022-08-05T07:56:12;16.97;;;8.73;;
4636;SDS011;2331;48.806;9.140;2022-08-05T07:58:39;8.70;;;5.00;;
4636;SDS011;2331;48.806;9.140;2022-08-05T08:01:06;8.40;;;4.50;;
4636;SDS011;2331;48.806;9.140;2022-08-05T08:03:32;4.80;;;3.27;;
4636;SDS011;2331;48.806;9.140;2022-08-05T08:05:59;10.27;;;4.93;;
4636;SDS011;2331;48.806;9.140;2022-08-05T08:08:26;15.47;;;9.60;;
4636;SDS011;2331;48.806;9.140;2022-08-05T08:10:53;9.80;;;6.30;;
4636;SDS011;2331;48.806;9.140;2022-08-05T08:13:22;17.53;;;8.77;;
4636;SDS011;2331;48.806;9.140;2022-08-05T08:15:48;13.00;;;7.17;;
4636;SDS011;2331;48.806;9.140;2022-08-05T08:18:15;4.23;;;2.40;;
4636;SDS011;2331;48.806;9.140;2022-08-05T08:20:42;5.30;;;2.63;;
4636;SDS011;2331;48.806;9.140;2022-08-05T08:23:08;9.33;;;5.30;;
4636;SDS011;2331;48.806;9.140;2022-08-05T08:25:36;10.33;;;5.93;;
4636;SDS011;2331;48.806;9.140;2022-08-05T08:28:03;14.27;;;5.87;;
4636;SDS011;2331;48.806;9.140;2022-08-05T08:30:31;5.87;;;3.60;;
4636;SDS011;2331;48.806;9.140;2022-08-05T08:32:58;10.83;;;6.20;;
4636;SDS011;2331;48.806;9.140;2022-08-05T08:35:24;4.03;;;2.57;;
4636;SDS011;2331;48.806;9.140;2022-08-05T08:37:51;6.00;;;3.40;;
4636;SDS011;2331;48.806;9.140;2022-08-05T08:40:18;10.37;;;6.50;;
4636;SDS011;2331;48.806;9.140;2022-08-05T08:42:45;11.80;;;3.93;;
4636;SDS011;2331;48.806;9.140;2022-08-05T08:45:17;10.23;;;5.83;;
4636;SDS011;2331;48.806;9.140;2022-08-05T08:47:47;6.43;;;3.70;;
4636;SDS011;2331;48.806;9.140;2022-08-05T08:50:16;3.53;;;2.00;;
4636;SDS011;2331;48.806;9.140;2022-08-05T08:52:46;4.60;;;2.83;;
4636;SDS011;2331;48.806;9.140;2022-08-05T08:55:15;10.47;;;6.07;;
4636;SDS011;2331;48.806;9.140;2022-08-05T08:57:43;13.60;;;7.60;;
4636;SDS011;2331;48.806;9.140;2022-08-05T09:00:11;7.23;;;4.47;;
4636;SDS011;2331;48.806;9.140;2022-08-05T09:02:38;5.77;;;2.70;;
4636;SDS011;2331;48.806;9.140;2022-08-05T09:05:07;10.53;;;5.20;;
4636;SDS011;2331;48.806;9.140;2022-08-05T09:07:36;7.97;;;4.87;;
4636;SDS011;2331;48.806;9.140;2022-08-05T09:10:04;9.07;;;4.97;;
4636;SDS011;2331;48.806;9.140;2022-08-05T09:12:31;14.83;;;9.00;;
4636;SDS011;2331;48.806;9.140;2022-08-05T09:14:59;16.47;;;10.07;;
4636;SDS011;2331;48.806;9.140;2022-08-05T09:17:27;10.43;;;6.53;;
4636;SDS011;2331;48.806;9.140;2022-08-05T09:19:55;5.20;;;3.50;;
4636;SDS011;2331;48.806;9.140;2022-08-05T09:22:23;8.13;;;4.90;;
4636;SDS011;2331;48.806;9.140;2022-08-05T09:24:56;8.53;;;4.50;;
4636;SDS011;2331;48.806;9.140;2022-08-05T09:27:31;14.63;;;9.60;;
4636;SDS011;2331;48.806;9.140;2022-08-05T09:29:59;4.47;;;2.20;;
4636;SDS011;2331;48.806;9.140;2022-08-05T09:32:35;5.97;;;3.00;;
4636;SDS011;2331;48.806;9.140;2022-08-05T09:35:08;4.40;;;2.67;;
4636;SDS011;2331;48.806;9.140;2022-08-05T09:37:38;16.47;;;9.50;;
4636;SDS011;2331;48.806;9.140;2022-08-05T09:40:27;9.63;;;5.73;;
4636;SDS011;2331;48.806;9.140;2022-08-05T09:42:58;28.00;;;17.37;;
4636;SDS011;2331;48.806;9.140;2022-08-05T09:45:35;53.37;;;32.87;;
4636;SDS011;2331;48.806;9.140;2022-08-05T09:48:19;45.23;;;29.10;;
4636;SDS011;2331;48.806;9.140;2022-08-05T09:50:49;38.40;;;22.03;;
4636;SDS011;2331;48.806;9.140;2022-08-05T09:53:18;32.10;;;20.37;;
4636;SDS011;2331;48.806;9.140;2022-08-05T09:55:45;28.57;;;18.10;;
4636;SDS011;2331;48.806;9.140;2022-08-05T09:58:15;43.90;;;27.77;;
4636;SDS011;2331;48.806;9.140;2022-08-05T10:00:50;48.50;;;30.37;;
4636;SDS011;2331;48.806;9.140;2022-08-05T10:03:19;18.70;;;10.00;;
4636;SDS011;2331;48.806;9.140;2022-08-05T10:05:46;12.07;;;6.20;;
4636;SDS011;2331;48.806;9.140;2022-08-05T10:08:27;16.80;;;9.43;;
4636;SDS011;2331;48.806;9.140;2022-08-05T10:10:54;12.60;;;7.10;;
4636;SDS011;2331;48.806;9.140;2022-08-05T10:13:25;5.00;;;3.80;;
4636;SDS011;2331;48.806;9.140;2022-08-05T10:15:56;11.60;;;7.83;;
4636;SDS011;2331;48.806;9.140;2022-08-05T10:18:24;33.23;;;22.77;;
4636;SDS011;2331;48.806;9.140;2022-08-05T10:20:52;17.47;;;5.97;;
4636;SDS011;2331;48.806;9.140;2022-08-05T10:23:21;14.77;;;7.20;;
4636;SDS011;2331;48.806;9.140;2022-08-05T10:25:50;22.33;;;13.73;;
4636;SDS011;2331;48.806;9.140;2022-08-05T10:28:18;5.37;;;3.53;;
4636;SDS011;2331;48.806;9.140;2022-08-05T10:30:45;11.37;;;6.83;;
4636;SDS011;2331;48.806;9.140;2022-08-05T10:33:12;62.73;;;38.00;;
4636;SDS011;2331;48.806;9.140;2022-08-05T10:35:39;4.63;;;3.10;;
4636;SDS011;2331;48.806;9.140;2022-08-05T10:38:06;8.60;;;3.80;;
4636;SDS011;2331;48.806;9.140;2022-08-05T10:40:34;10.67;;;4.37;;
4636;SDS011;2331;48.806;9.140;2022-08-05T10:43:11;4.90;;;2.97;;
4636;SDS011;2331;48.806;9.140;2022-08-05T10:45:56;34.77;;;20.40;;
4636;SDS011;2331;48.806;9.140;2022-08-05T10:48:30;9.43;;;5.40;;
4636;SDS011;2331;48.806;9.140;2022-08-05T10:51:00;7.57;;;3.90;;
4636;SDS011;2331;48.806;9.140;2022-08-05T10:53:32;7.03;;;4.77;;
4636;SDS011;2331;48.806;9.140;2022-08-05T10:56:04;5.90;;;2.87;;
4636;SDS011;2331;48.806;9.140;2022-08-05T10:58:34;5.10;;;3.30;;
4636;SDS011;2331;48.806;9.140;2022-08-05T11:01:05;8.20;;;5.50;;
4636;SDS011;2331;48.806;9.140;2022-08-05T11:03:33;17.67;;;10.33;;
4636;SDS011;2331;48.806;9.140;2022-08-05T11:06:04;45.20;;;26.93;;
4636;SDS011;2331;48.806;9.140;2022-08-05T11:08:33;7.77;;;5.20;;
4636;SDS011;2331;48.806;9.140;2022-08-05T11:14:00;8.50;;;4.23;;
4636;SDS011;2331;48.806;9.140;2022-08-05T11:16:27;12.20;;;7.40;;
4636;SDS011;2331;48.806;9.140;2022-08-05T11:21:50;11.97;;;7.07;;
4636;SDS011;2331;48.806;9.140;2022-08-05T11:24:17;11.10;;;7.27;;
4636;SDS011;2331;48.806;9.140;2022-08-05T11:26:45;23.00;;;15.10;;
4636;SDS011;2331;48.806;9.140;2022-08-05T11:32:22;10.70;;;5.37;;
4636;SDS011;2331;48.806;9.140;2022-08-05T11:34:50;7.30;;;3.90;;
4636;SDS011;2331;48.806;9.140;2022-08-05T11:43:24;43.40;;;28.03;;
4636;SDS011;2331;48.806;9.140;2022-08-05T11:45:53;20.90;;;12.93;;
4636;SDS011;2331;48.806;9.140;2022-08-05T11:48:20;26.13;;;17.23;;
4636;SDS011;2331;48.806;9.140;2022-08-05T11:50:48;45.40;;;30.63;;
4636;SDS011;2331;48.806;9.140;2022-08-05T11:53:15;56.37;;;36.30;;
4636;SDS011;2331;48.806;9.140;2022-08-05T11:55:52;51.37;;;31.53;;
4636;SDS011;2331;48.806;9.140;2022-08-05T11:58:23;31.50;;;21.00;;
4636;SDS011;2331;48.806;9.140;2022-08-05T12:01:00;15.83;;;10.77;;
4636;SDS011;2331;48.806;9.140;2022-08-05T12:03:28;11.83;;;6.70;;
4636;SDS011;2331;48.806;9.140;2022-08-05T12:06:02;5.60;;;3.03;;
4636;SDS011;2331;48.806;9.140;2022-08-05T12:08:30;4.67;;;2.70;;
4636;SDS011;2331;48.806;9.140;2022-08-05T12:10:57;5.63;;;2.83;;
4636;SDS011;2331;48.806;9.140;2022-08-05T12:13:25;6.67;;;3.57;;
4636;SDS011;2331;48.806;9.140;2022-08-05T12:15:52;5.37;;;2.70;;
4636;SDS011;2331;48.806;9.140;2022-08-05T12:18:22;7.33;;;4.73;;
4636;SDS011;2331;48.806;9.140;2022-08-05T12:20:54;9.60;;;5.90;;
4636;SDS011;2331;48.806;9.140;2022-08-05T12:23:20;8.87;;;5.50;;
4636;SDS011;2331;48.806;9.140;2022-08-05T12:25:48;8.13;;;4.30;;
4636;SDS011;2331;48.806;9.140;2022-08-05T12:28:28;5.97;;;3.57;;
4636;SDS011;2331;48.806;9.140;2022-08-05T12:30:56;5.57;;;2.57;;
4636;SDS011;2331;48.806;9.140;2022-08-05T12:33:24;6.83;;;4.10;;
4636;SDS011;2331;48.806;9.140;2022-08-05T12:35:52;5.17;;;2.77;;
4636;SDS011;2331;48.806;9.140;2022-08-05T12:38:20;4.10;;;2.23;;
4636;SDS011;2331;48.806;9.140;2022-08-05T12:40:47;3.93;;;2.87;;
4636;SDS011;2331;48.806;9.140;2022-08-05T12:43:14;5.30;;;2.80;;
4636;SDS011;2331;48.806;9.140;2022-08-05T12:45:49;6.30;;;3.00;;
4636;SDS011;2331;48.806;9.140;2022-08-05T12:48:16;4.47;;;2.67;;
4636;SDS011;2331;48.806;9.140;2022-08-05T12:50:44;3.23;;;2.00;;
4636;SDS011;2331;48.806;9.140;2022-08-05T12:53:40;4.53;;;2.23;;
4636;SDS011;2331;48.806;9.140;2022-08-05T12:56:14;3.20;;;1.90;;
4636;SDS011;2331;48.806;9.140;2022-08-05T12:58:43;5.43;;;2.00;;
4636;SDS011;2331;48.806;9.140;2022-08-05T13:01:12;5.30;;;2.53;;
4636;SDS011;2331;48.806;9.140;2022-08-05T13:03:39;4.00;;;2.20;;
4636;SDS011;2331;48.806;9.140;2022-08-05T13:06:07;3.40;;;2.20;;
4636;SDS011;2331;48.806;9.140;2022-08-05T13:08:38;4.27;;;2.17;;
4636;SDS011;2331;48.806;9.140;2022-08-05T13:11:05;3.93;;;2.07;;
4636;SDS011;2331;48.806;9.140;2022-08-05T13:13:32;3.53;;;2.10;;
4636;SDS011;2331;48.806;9.140;2022-08-05T13:16:10;4.87;;;2.33;;
4636;SDS011;2331;48.806;9.140;2022-08-05T13:18:38;6.10;;;2.77;;
4636;SDS011;2331;48.806;9.140;2022-08-05T13:21:05;9.00;;;2.53;;
4636;SDS011;2331;48.806;9.140;2022-08-05T13:23:33;5.77;;;2.20;;
4636;SDS011;2331;48.806;9.140;2022-08-05T13:26:01;5.03;;;2.30;;
4636;SDS011;2331;48.806;9.140;2022-08-05T13:28:29;3.87;;;2.47;;
4636;SDS011;2331;48.806;9.140;2022-08-05T13:30:56;4.17;;;2.20;;
4636;SDS011;2331;48.806;9.140;2022-08-05T13:33:23;3.70;;;2.10;;
4636;SDS011;2331;48.806;9.140;2022-08-05T13:35:49;3.73;;;2.20;;
4636;SDS011;2331;48.806;9.140;2022-08-05T13:38:18;4.10;;;2.03;;
4636;SDS011;2331;48.806;9.140;2022-08-05T13:40:45;4.97;;;2.40;;
4636;SDS011;2331;48.806;9.140;2022-08-05T13:43:12;4.87;;;2.10;;
4636;SDS011;2331;48.806;9.140;2022-08-05T13:45:39;4.60;;;1.97;;
4636;SDS011;2331;48.806;9.140;2022-08-05T13:48:05;4.07;;;2.10;;
4636;SDS011;2331;48.806;9.140;2022-08-05T13:50:32;3.30;;;2.10;;
4636;SDS011;2331;48.806;9.140;2022-08-05T13:52:59;4.87;;;1.93;;
4636;SDS011;2331;48.806;9.140;2022-08-05T13:55:27;4.70;;;2.40;;
4636;SDS011;2331;48.806;9.140;2022-08-05T13:57:54;4.60;;;2.60;;
4636;SDS011;2331;48.806;9.140;2022-08-05T14:00:20;4.50;;;1.90;;
4636;SDS011;2331;48.806;9.140;2022-08-05T14:02:47;5.03;;;2.20;;
4636;SDS011;2331;48.806;9.140;2022-08-05T14:05:14;5.20;;;2.17;;
4636;SDS011;2331;48.806;9.140;2022-08-05T14:07:41;4.77;;;1.90;;
4636;SDS011;2331;48.806;9.140;2022-08-05T14:10:10;10.83;;;2.73;;
4636;SDS011;2331;48.806;9.140;2022-08-05T14:12:40;3.47;;;2.30;;
4636;SDS011;2331;48.806;9.140;2022-08-05T14:15:08;8.10;;;2.23;;
4636;SDS011;2331;48.806;9.140;2022-08-05T14:17:35;3.33;;;1.90;;
4636;SDS011;2331;48.806;9.140;2022-08-05T14:20:03;3.93;;;1.80;;
4636;SDS011;2331;48.806;9.140;2022-08-05T14:22:30;3.17;;;2.03;;
4636;SDS011;2331;48.806;9.140;2022-08-05T14:24:56;3.80;;;2.40;;
4636;SDS011;2331;48.806;9.140;2022-08-05T14:27:23;4.30;;;2.20;;
4636;SDS011;2331;48.806;9.140;2022-08-05T14:29:51;6.37;;;2.17;;
4636;SDS011;2331;48.806;9.140;2022-08-05T14:32:19;3.20;;;2.00;;
4636;SDS011;2331;48.806;9.140;2022-08-05T14:34:46;4.73;;;2.13;;
4636;SDS011;2331;48.806;9.140;2022-08-05T14:37:13;3.30;;;1.90;;
4636;SDS011;2331;48.806;9.140;2022-08-05T14:39:41;3.60;;;1.90;;
4636;SDS011;2331;48.806;9.140;2022-08-05T14:42:07;3.50;;;1.90;;
4636;SDS011;2331;48.806;9.140;2022-08-05T14:44:34;3.50;;;2.17;;
4636;SDS011;2331;48.806;9.140;2022-08-05T14:47:03;4.40;;;2.10;;
4636;SDS011;2331;48.806;9.140;2022-08-05T14:49:30;4.80;;;2.37;;
4636;SDS011;2331;48.806;9.140;2022-08-05T14:51:57;3.77;;;2.20;;
4636;SDS011;2331;48.806;9.140;2022-08-05T14:54:23;9.63;;;2.43;;
4636;SDS011;2331;48.806;9.140;2022-08-05T14:56:50;5.03;;;2.53;;
4636;SDS011;2331;48.806;9.140;2022-08-05T14:59:17;4.27;;;2.30;;
4636;SDS011;2331;48.806;9.140;2022-08-05T15:01:45;3.47;;;2.33;;
4636;SDS011;2331;48.806;9.140;2022-08-05T15:04:13;3.30;;;2.30;;
4636;SDS011;2331;48.806;9.140;2022-08-05T15:06:40;4.43;;;2.70;;
4636;SDS011;2331;48.806;9.140;2022-08-05T15:09:07;4.77;;;2.80;;
4636;SDS011;2331;48.806;9.140;2022-08-05T15:11:34;5.47;;;2.90;;
4636;SDS011;2331;48.806;9.140;2022-08-05T15:14:01;5.30;;;2.67;;
4636;SDS011;2331;48.806;9.140;2022-08-05T15:16:28;5.43;;;2.77;;
4636;SDS011;2331;48.806;9.140;2022-08-05T15:18:56;4.43;;;2.80;;
4636;SDS011;2331;48.806;9.140;2022-08-05T15:21:24;5.60;;;2.87;;
4636;SDS011;2331;48.806;9.140;2022-08-05T15:23:51;6.10;;;2.80;;
4636;SDS011;2331;48.806;9.140;2022-08-05T15:26:18;7.47;;;3.07;;
4636;SDS011;2331;48.806;9.140;2022-08-05T15:28:45;4.03;;;3.03;;
4636;SDS011;2331;48.806;9.140;2022-08-05T15:31:12;4.17;;;2.90;;
4636;SDS011;2331;48.806;9.140;2022-08-05T15:33:38;4.93;;;2.93;;